sensor_id;sensor_type;location;lat;lon;timestamp;P1;durP1;ratioP1;P2;durP2;ratioP2
70929;SDS011;58588;48.102;19.682;2022-07-06T00:01:17;9.95;;;5.13;;
70929;SDS011;58588;48.102;19.682;2022-07-06T00:04:19;11.13;;;4.85;;
70929;SDS011;58588;48.102;19.682;2022-07-06T00:07:21;11.07;;;5.13;;
70929;SDS011;58588;48.102;19.682;2022-07-06T00:10:23;11.98;;;5.22;;
70929;SDS011;58588;48.102;19.682;2022-07-06T00:13:25;11.30;;;5.13;;
70929;SDS011;58588;48.102;19.682;2022-07-06T00:16:29;13.48;;;5.63;;
70929;SDS011;58588;48.102;19.682;2022-07-06T00:19:31;11.70;;;4.90;;
70929;SDS011;58588;48.102;19.682;2022-07-06T00:22:33;12.23;;;5.50;;
70929;SDS011;58588;48.102;19.682;2022-07-06T00:25:35;12.30;;;5.30;;
70929;SDS011;58588;48.102;19.682;2022-07-06T00:28:37;8.60;;;5.40;;
70929;SDS011;58588;48.102;19.682;2022-07-06T00:31:40;12.90;;;5.80;;
70929;SDS011;58588;48.102;19.682;2022-07-06T00:34:42;9.77;;;5.93;;
70929;SDS011;58588;48.102;19.682;2022-07-06T00:37:44;13.25;;;5.90;;
70929;SDS011;58588;48.102;19.682;2022-07-06T00:40:46;10.07;;;5.45;;
70929;SDS011;58588;48.102;19.682;2022-07-06T00:43:52;12.27;;;5.73;;
70929;SDS011;58588;48.102;19.682;2022-07-06T00:46:57;12.00;;;5.53;;
70929;SDS011;58588;48.102;19.682;2022-07-06T00:49:59;10.55;;;4.93;;
70929;SDS011;58588;48.102;19.682;2022-07-06T00:53:21;9.68;;;4.95;;
70929;SDS011;58588;48.102;19.682;2022-07-06T00:56:23;9.73;;;4.97;;
70929;SDS011;58588;48.102;19.682;2022-07-06T00:59:25;14.37;;;5.13;;
70929;SDS011;58588;48.102;19.682;2022-07-06T01:02:31;8.30;;;4.63;;
70929;SDS011;58588;48.102;19.682;2022-07-06T01:05:34;13.80;;;5.22;;
70929;SDS011;58588;48.102;19.682;2022-07-06T01:08:36;11.77;;;5.30;;
70929;SDS011;58588;48.102;19.682;2022-07-06T01:11:39;9.18;;;5.13;;
70929;SDS011;58588;48.102;19.682;2022-07-06T01:14:41;9.17;;;4.80;;
70929;SDS011;58588;48.102;19.682;2022-07-06T01:17:45;10.43;;;5.20;;
70929;SDS011;58588;48.102;19.682;2022-07-06T01:20:49;12.25;;;4.88;;
70929;SDS011;58588;48.102;19.682;2022-07-06T01:23:51;10.18;;;5.00;;
70929;SDS011;58588;48.102;19.682;2022-07-06T01:26:53;10.73;;;4.57;;
70929;SDS011;58588;48.102;19.682;2022-07-06T01:29:55;7.37;;;4.40;;
70929;SDS011;58588;48.102;19.682;2022-07-06T01:32:57;9.23;;;4.35;;
70929;SDS011;58588;48.102;19.682;2022-07-06T01:36:00;10.88;;;4.70;;
70929;SDS011;58588;48.102;19.682;2022-07-06T01:39:02;10.60;;;4.57;;
70929;SDS011;58588;48.102;19.682;2022-07-06T01:42:04;9.13;;;4.68;;
70929;SDS011;58588;48.102;19.682;2022-07-06T01:45:07;7.83;;;4.30;;
70929;SDS011;58588;48.102;19.682;2022-07-06T01:48:10;12.73;;;5.45;;
70929;SDS011;58588;48.102;19.682;2022-07-06T01:51:13;9.63;;;5.13;;
70929;SDS011;58588;48.102;19.682;2022-07-06T01:54:15;12.32;;;5.10;;
70929;SDS011;58588;48.102;19.682;2022-07-06T01:57:17;11.63;;;4.43;;
70929;SDS011;58588;48.102;19.682;2022-07-06T02:00:19;14.47;;;4.73;;
70929;SDS011;58588;48.102;19.682;2022-07-06T02:03:21;12.35;;;4.70;;
70929;SDS011;58588;48.102;19.682;2022-07-06T02:06:24;14.13;;;4.82;;
70929;SDS011;58588;48.102;19.682;2022-07-06T02:09:26;10.50;;;4.80;;
70929;SDS011;58588;48.102;19.682;2022-07-06T02:12:28;10.65;;;4.43;;
70929;SDS011;58588;48.102;19.682;2022-07-06T02:15:30;10.10;;;4.70;;
70929;SDS011;58588;48.102;19.682;2022-07-06T02:18:32;9.02;;;4.35;;
70929;SDS011;58588;48.102;19.682;2022-07-06T02:21:36;8.75;;;4.65;;
70929;SDS011;58588;48.102;19.682;2022-07-06T02:24:37;12.18;;;4.38;;
70929;SDS011;58588;48.102;19.682;2022-07-06T02:27:39;13.60;;;4.15;;
70929;SDS011;58588;48.102;19.682;2022-07-06T02:30:41;10.17;;;4.30;;
70929;SDS011;58588;48.102;19.682;2022-07-06T02:33:43;14.13;;;4.40;;
70929;SDS011;58588;48.102;19.682;2022-07-06T02:36:47;9.98;;;4.22;;
70929;SDS011;58588;48.102;19.682;2022-07-06T02:39:49;12.90;;;3.97;;
70929;SDS011;58588;48.102;19.682;2022-07-06T02:42:51;10.45;;;4.28;;
70929;SDS011;58588;48.102;19.682;2022-07-06T02:45:52;11.50;;;4.43;;
70929;SDS011;58588;48.102;19.682;2022-07-06T02:48:54;7.47;;;4.22;;
70929;SDS011;58588;48.102;19.682;2022-07-06T02:51:58;10.68;;;4.55;;
70929;SDS011;58588;48.102;19.682;2022-07-06T02:55:00;8.90;;;4.00;;
70929;SDS011;58588;48.102;19.682;2022-07-06T02:58:02;8.50;;;4.25;;
70929;SDS011;58588;48.102;19.682;2022-07-06T03:01:04;9.40;;;4.10;;
70929;SDS011;58588;48.102;19.682;2022-07-06T03:04:06;10.70;;;4.20;;
70929;SDS011;58588;48.102;19.682;2022-07-06T03:07:09;9.68;;;3.70;;
70929;SDS011;58588;48.102;19.682;2022-07-06T03:10:12;10.20;;;4.15;;
70929;SDS011;58588;48.102;19.682;2022-07-06T03:13:13;6.20;;;3.35;;
70929;SDS011;58588;48.102;19.682;2022-07-06T03:16:15;8.30;;;3.40;;
70929;SDS011;58588;48.102;19.682;2022-07-06T03:19:17;10.32;;;3.63;;
70929;SDS011;58588;48.102;19.682;2022-07-06T03:22:21;7.80;;;3.80;;
70929;SDS011;58588;48.102;19.682;2022-07-06T03:25:23;7.60;;;3.50;;
70929;SDS011;58588;48.102;19.682;2022-07-06T03:28:25;9.23;;;3.38;;
70929;SDS011;58588;48.102;19.682;2022-07-06T03:31:27;9.80;;;3.20;;
70929;SDS011;58588;48.102;19.682;2022-07-06T03:34:29;8.02;;;3.75;;
70929;SDS011;58588;48.102;19.682;2022-07-06T03:37:33;9.75;;;3.50;;
70929;SDS011;58588;48.102;19.682;2022-07-06T03:40:35;9.23;;;3.53;;
70929;SDS011;58588;48.102;19.682;2022-07-06T03:43:36;7.85;;;3.60;;
70929;SDS011;58588;48.102;19.682;2022-07-06T03:46:38;8.03;;;3.40;;
70929;SDS011;58588;48.102;19.682;2022-07-06T03:49:40;8.35;;;3.67;;
70929;SDS011;58588;48.102;19.682;2022-07-06T03:52:44;9.68;;;3.80;;
70929;SDS011;58588;48.102;19.682;2022-07-06T03:55:46;8.77;;;3.35;;
70929;SDS011;58588;48.102;19.682;2022-07-06T03:59:08;10.82;;;3.67;;
70929;SDS011;58588;48.102;19.682;2022-07-06T04:02:10;9.70;;;3.30;;
70929;SDS011;58588;48.102;19.682;2022-07-06T04:05:12;7.15;;;3.28;;
70929;SDS011;58588;48.102;19.682;2022-07-06T04:08:15;8.38;;;3.28;;
70929;SDS011;58588;48.102;19.682;2022-07-06T04:11:17;7.32;;;3.28;;
70929;SDS011;58588;48.102;19.682;2022-07-06T04:14:19;8.98;;;3.30;;
70929;SDS011;58588;48.102;19.682;2022-07-06T04:17:21;9.20;;;3.20;;
70929;SDS011;58588;48.102;19.682;2022-07-06T04:20:40;9.38;;;3.35;;
70929;SDS011;58588;48.102;19.682;2022-07-06T04:23:44;7.35;;;3.35;;
70929;SDS011;58588;48.102;19.682;2022-07-06T04:26:45;8.50;;;3.20;;
70929;SDS011;58588;48.102;19.682;2022-07-06T04:29:47;8.55;;;3.30;;
70929;SDS011;58588;48.102;19.682;2022-07-06T04:32:49;10.10;;;3.30;;
70929;SDS011;58588;48.102;19.682;2022-07-06T04:35:51;8.40;;;2.95;;
70929;SDS011;58588;48.102;19.682;2022-07-06T04:38:55;7.95;;;3.15;;
70929;SDS011;58588;48.102;19.682;2022-07-06T04:41:56;6.45;;;2.90;;
70929;SDS011;58588;48.102;19.682;2022-07-06T04:44:58;14.18;;;3.40;;
70929;SDS011;58588;48.102;19.682;2022-07-06T04:48:00;7.40;;;3.67;;
70929;SDS011;58588;48.102;19.682;2022-07-06T04:51:02;9.65;;;3.50;;
70929;SDS011;58588;48.102;19.682;2022-07-06T04:54:06;6.85;;;3.30;;
70929;SDS011;58588;48.102;19.682;2022-07-06T04:57:08;7.88;;;2.85;;
70929;SDS011;58588;48.102;19.682;2022-07-06T05:00:10;9.77;;;3.35;;
70929;SDS011;58588;48.102;19.682;2022-07-06T05:03:15;6.57;;;2.87;;
70929;SDS011;58588;48.102;19.682;2022-07-06T05:06:25;6.70;;;2.95;;
70929;SDS011;58588;48.102;19.682;2022-07-06T05:09:34;7.53;;;3.10;;
70929;SDS011;58588;48.102;19.682;2022-07-06T05:12:36;8.48;;;2.97;;
70929;SDS011;58588;48.102;19.682;2022-07-06T05:15:38;6.68;;;3.20;;
70929;SDS011;58588;48.102;19.682;2022-07-06T05:18:40;8.53;;;3.07;;
70929;SDS011;58588;48.102;19.682;2022-07-06T05:21:42;10.27;;;3.30;;
70929;SDS011;58588;48.102;19.682;2022-07-06T05:24:45;8.43;;;3.80;;
70929;SDS011;58588;48.102;19.682;2022-07-06T05:27:47;11.57;;;4.40;;
70929;SDS011;58588;48.102;19.682;2022-07-06T05:30:49;8.10;;;3.80;;
70929;SDS011;58588;48.102;19.682;2022-07-06T05:33:51;8.13;;;3.50;;
70929;SDS011;58588;48.102;19.682;2022-07-06T05:36:53;6.18;;;3.15;;
70929;SDS011;58588;48.102;19.682;2022-07-06T05:39:56;7.25;;;3.03;;
70929;SDS011;58588;48.102;19.682;2022-07-06T05:42:58;11.30;;;2.92;;
70929;SDS011;58588;48.102;19.682;2022-07-06T05:46:00;5.88;;;2.83;;
70929;SDS011;58588;48.102;19.682;2022-07-06T05:49:02;9.30;;;2.93;;
70929;SDS011;58588;48.102;19.682;2022-07-06T05:52:21;7.78;;;2.95;;
70929;SDS011;58588;48.102;19.682;2022-07-06T05:55:25;7.03;;;2.90;;
70929;SDS011;58588;48.102;19.682;2022-07-06T05:58:27;6.07;;;3.00;;
70929;SDS011;58588;48.102;19.682;2022-07-06T06:01:29;6.50;;;2.72;;
70929;SDS011;58588;48.102;19.682;2022-07-06T06:04:31;8.90;;;3.30;;
70929;SDS011;58588;48.102;19.682;2022-07-06T06:07:34;8.90;;;3.15;;
70929;SDS011;58588;48.102;19.682;2022-07-06T06:10:37;8.95;;;3.50;;
70929;SDS011;58588;48.102;19.682;2022-07-06T06:13:39;6.28;;;2.50;;
70929;SDS011;58588;48.102;19.682;2022-07-06T06:16:41;5.85;;;2.60;;
70929;SDS011;58588;48.102;19.682;2022-07-06T06:19:43;8.13;;;2.30;;
70929;SDS011;58588;48.102;19.682;2022-07-06T06:22:49;6.80;;;2.38;;
70929;SDS011;58588;48.102;19.682;2022-07-06T06:25:53;6.75;;;2.00;;
70929;SDS011;58588;48.102;19.682;2022-07-06T06:28:55;5.72;;;2.30;;
70929;SDS011;58588;48.102;19.682;2022-07-06T06:31:57;7.57;;;2.50;;
70929;SDS011;58588;48.102;19.682;2022-07-06T06:34:59;6.77;;;2.23;;
70929;SDS011;58588;48.102;19.682;2022-07-06T06:38:01;8.85;;;2.25;;
70929;SDS011;58588;48.102;19.682;2022-07-06T06:41:05;5.25;;;1.90;;
70929;SDS011;58588;48.102;19.682;2022-07-06T06:44:07;4.82;;;1.90;;
70929;SDS011;58588;48.102;19.682;2022-07-06T06:47:09;5.90;;;1.77;;
70929;SDS011;58588;48.102;19.682;2022-07-06T06:50:11;4.90;;;1.97;;
70929;SDS011;58588;48.102;19.682;2022-07-06T06:53:13;4.90;;;1.75;;
70929;SDS011;58588;48.102;19.682;2022-07-06T06:56:16;4.65;;;1.60;;
70929;SDS011;58588;48.102;19.682;2022-07-06T06:59:18;5.93;;;1.52;;
70929;SDS011;58588;48.102;19.682;2022-07-06T07:02:20;5.68;;;1.63;;
70929;SDS011;58588;48.102;19.682;2022-07-06T07:05:22;6.23;;;1.80;;
70929;SDS011;58588;48.102;19.682;2022-07-06T07:08:24;6.47;;;1.73;;
70929;SDS011;58588;48.102;19.682;2022-07-06T07:11:27;6.47;;;1.85;;
70929;SDS011;58588;48.102;19.682;2022-07-06T07:14:29;6.38;;;2.45;;
70929;SDS011;58588;48.102;19.682;2022-07-06T07:17:31;6.80;;;2.00;;
70929;SDS011;58588;48.102;19.682;2022-07-06T07:20:33;5.70;;;2.00;;
70929;SDS011;58588;48.102;19.682;2022-07-06T07:23:35;5.97;;;1.95;;
70929;SDS011;58588;48.102;19.682;2022-07-06T07:26:39;5.90;;;2.00;;
70929;SDS011;58588;48.102;19.682;2022-07-06T07:29:40;5.82;;;2.00;;
70929;SDS011;58588;48.102;19.682;2022-07-06T07:32:42;5.07;;;1.58;;
70929;SDS011;58588;48.102;19.682;2022-07-06T07:35:44;6.17;;;2.07;;
70929;SDS011;58588;48.102;19.682;2022-07-06T07:38:46;4.95;;;2.00;;
70929;SDS011;58588;48.102;19.682;2022-07-06T07:41:50;6.07;;;2.00;;
70929;SDS011;58588;48.102;19.682;2022-07-06T07:44:52;5.55;;;2.08;;
70929;SDS011;58588;48.102;19.682;2022-07-06T07:47:54;4.88;;;2.05;;
70929;SDS011;58588;48.102;19.682;2022-07-06T07:50:56;5.00;;;1.90;;
70929;SDS011;58588;48.102;19.682;2022-07-06T07:53:58;5.53;;;1.98;;
70929;SDS011;58588;48.102;19.682;2022-07-06T07:57:01;6.68;;;2.20;;
70929;SDS011;58588;48.102;19.682;2022-07-06T08:00:04;4.38;;;1.60;;
70929;SDS011;58588;48.102;19.682;2022-07-06T08:03:06;7.70;;;1.80;;
70929;SDS011;58588;48.102;19.682;2022-07-06T08:06:09;14.90;;;4.43;;
70929;SDS011;58588;48.102;19.682;2022-07-06T08:09:11;12.95;;;4.70;;
70929;SDS011;58588;48.102;19.682;2022-07-06T08:12:14;7.03;;;2.67;;
70929;SDS011;58588;48.102;19.682;2022-07-06T08:15:16;7.40;;;1.75;;
70929;SDS011;58588;48.102;19.682;2022-07-06T08:18:18;6.20;;;1.90;;
70929;SDS011;58588;48.102;19.682;2022-07-06T08:21:20;4.40;;;1.70;;
70929;SDS011;58588;48.102;19.682;2022-07-06T08:24:22;6.50;;;1.73;;
70929;SDS011;58588;48.102;19.682;2022-07-06T08:27:25;4.93;;;1.80;;
70929;SDS011;58588;48.102;19.682;2022-07-06T08:30:27;5.65;;;1.98;;
70929;SDS011;58588;48.102;19.682;2022-07-06T08:33:31;5.05;;;1.77;;
70929;SDS011;58588;48.102;19.682;2022-07-06T08:36:33;4.77;;;1.77;;
70929;SDS011;58588;48.102;19.682;2022-07-06T08:39:35;5.93;;;1.80;;
70929;SDS011;58588;48.102;19.682;2022-07-06T08:42:39;5.60;;;1.80;;
70929;SDS011;58588;48.102;19.682;2022-07-06T08:45:43;4.50;;;1.77;;
70929;SDS011;58588;48.102;19.682;2022-07-06T08:48:47;7.57;;;1.70;;
70929;SDS011;58588;48.102;19.682;2022-07-06T08:51:50;8.60;;;1.50;;
70929;SDS011;58588;48.102;19.682;2022-07-06T08:54:53;4.53;;;1.55;;
70929;SDS011;58588;48.102;19.682;2022-07-06T08:57:57;4.03;;;1.40;;
70929;SDS011;58588;48.102;19.682;2022-07-06T09:00:59;6.88;;;1.45;;
70929;SDS011;58588;48.102;19.682;2022-07-06T09:04:01;4.38;;;1.50;;
70929;SDS011;58588;48.102;19.682;2022-07-06T09:07:07;4.60;;;1.40;;
70929;SDS011;58588;48.102;19.682;2022-07-06T09:10:09;5.13;;;1.42;;
70929;SDS011;58588;48.102;19.682;2022-07-06T09:13:12;6.47;;;1.50;;
70929;SDS011;58588;48.102;19.682;2022-07-06T09:16:15;5.47;;;1.38;;
70929;SDS011;58588;48.102;19.682;2022-07-06T09:19:17;4.88;;;1.20;;
70929;SDS011;58588;48.102;19.682;2022-07-06T09:22:26;5.33;;;1.10;;
70929;SDS011;58588;48.102;19.682;2022-07-06T09:25:28;6.18;;;1.42;;
70929;SDS011;58588;48.102;19.682;2022-07-06T09:28:42;5.88;;;1.50;;
70929;SDS011;58588;48.102;19.682;2022-07-06T09:31:45;4.10;;;1.30;;
70929;SDS011;58588;48.102;19.682;2022-07-06T09:34:58;5.88;;;1.50;;
70929;SDS011;58588;48.102;19.682;2022-07-06T09:38:02;4.80;;;1.30;;
70929;SDS011;58588;48.102;19.682;2022-07-06T09:41:05;3.75;;;1.30;;
70929;SDS011;58588;48.102;19.682;2022-07-06T09:44:09;4.30;;;1.50;;
70929;SDS011;58588;48.102;19.682;2022-07-06T09:47:11;4.20;;;1.50;;
70929;SDS011;58588;48.102;19.682;2022-07-06T09:50:15;4.53;;;1.65;;
70929;SDS011;58588;48.102;19.682;2022-07-06T09:53:17;6.60;;;1.50;;
70929;SDS011;58588;48.102;19.682;2022-07-06T09:56:19;4.50;;;1.35;;
70929;SDS011;58588;48.102;19.682;2022-07-06T09:59:23;6.15;;;1.40;;
70929;SDS011;58588;48.102;19.682;2022-07-06T10:02:26;3.90;;;1.30;;
70929;SDS011;58588;48.102;19.682;2022-07-06T10:05:29;4.88;;;1.42;;
70929;SDS011;58588;48.102;19.682;2022-07-06T10:08:33;4.43;;;1.40;;
70929;SDS011;58588;48.102;19.682;2022-07-06T10:11:37;3.97;;;1.40;;
70929;SDS011;58588;48.102;19.682;2022-07-06T10:14:41;4.32;;;1.40;;
70929;SDS011;58588;48.102;19.682;2022-07-06T10:17:45;4.60;;;1.55;;
70929;SDS011;58588;48.102;19.682;2022-07-06T10:20:48;5.95;;;1.50;;
70929;SDS011;58588;48.102;19.682;2022-07-06T10:23:51;6.53;;;1.70;;
70929;SDS011;58588;48.102;19.682;2022-07-06T10:26:53;4.57;;;1.50;;
70929;SDS011;58588;48.102;19.682;2022-07-06T10:29:57;4.22;;;1.45;;
70929;SDS011;58588;48.102;19.682;2022-07-06T10:32:59;4.05;;;1.50;;
70929;SDS011;58588;48.102;19.682;2022-07-06T10:36:02;6.00;;;1.65;;
70929;SDS011;58588;48.102;19.682;2022-07-06T10:39:05;7.07;;;1.50;;
70929;SDS011;58588;48.102;19.682;2022-07-06T10:42:40;4.10;;;1.40;;
70929;SDS011;58588;48.102;19.682;2022-07-06T10:45:51;3.72;;;1.27;;
70929;SDS011;58588;48.102;19.682;2022-07-06T10:48:54;4.88;;;1.70;;
70929;SDS011;58588;48.102;19.682;2022-07-06T10:51:57;4.93;;;1.75;;
70929;SDS011;58588;48.102;19.682;2022-07-06T10:54:59;5.60;;;2.00;;
70929;SDS011;58588;48.102;19.682;2022-07-06T10:58:01;5.53;;;1.90;;
70929;SDS011;58588;48.102;19.682;2022-07-06T11:01:05;4.10;;;1.50;;
70929;SDS011;58588;48.102;19.682;2022-07-06T11:04:08;4.82;;;1.70;;
70929;SDS011;58588;48.102;19.682;2022-07-06T11:07:10;5.75;;;1.60;;
70929;SDS011;58588;48.102;19.682;2022-07-06T11:10:13;4.87;;;1.90;;
70929;SDS011;58588;48.102;19.682;2022-07-06T11:13:25;5.20;;;1.70;;
70929;SDS011;58588;48.102;19.682;2022-07-06T11:16:29;4.80;;;1.90;;
70929;SDS011;58588;48.102;19.682;2022-07-06T11:19:34;5.63;;;2.15;;
70929;SDS011;58588;48.102;19.682;2022-07-06T11:22:36;4.57;;;1.70;;
70929;SDS011;58588;48.102;19.682;2022-07-06T11:25:39;4.63;;;1.70;;
70929;SDS011;58588;48.102;19.682;2022-07-06T11:28:41;6.22;;;2.20;;
70929;SDS011;58588;48.102;19.682;2022-07-06T11:31:49;6.93;;;2.70;;
70929;SDS011;58588;48.102;19.682;2022-07-06T11:34:52;6.28;;;2.40;;
70929;SDS011;58588;48.102;19.682;2022-07-06T11:37:54;6.22;;;1.88;;
70929;SDS011;58588;48.102;19.682;2022-07-06T11:40:56;4.30;;;1.40;;
70929;SDS011;58588;48.102;19.682;2022-07-06T11:43:58;10.98;;;1.63;;
70929;SDS011;58588;48.102;19.682;2022-07-06T11:47:03;6.03;;;1.38;;
70929;SDS011;58588;48.102;19.682;2022-07-06T11:50:07;4.47;;;1.40;;
70929;SDS011;58588;48.102;19.682;2022-07-06T11:53:10;6.10;;;1.50;;
70929;SDS011;58588;48.102;19.682;2022-07-06T11:56:12;5.33;;;1.40;;
70929;SDS011;58588;48.102;19.682;2022-07-06T11:59:16;8.70;;;1.42;;
70929;SDS011;58588;48.102;19.682;2022-07-06T12:02:22;4.78;;;1.58;;
70929;SDS011;58588;48.102;19.682;2022-07-06T12:05:28;4.25;;;1.40;;
70929;SDS011;58588;48.102;19.682;2022-07-06T12:08:31;4.65;;;1.65;;
70929;SDS011;58588;48.102;19.682;2022-07-06T12:11:35;5.50;;;1.40;;
70929;SDS011;58588;48.102;19.682;2022-07-06T12:14:40;4.95;;;1.30;;
70929;SDS011;58588;48.102;19.682;2022-07-06T12:17:47;7.28;;;1.70;;
70929;SDS011;58588;48.102;19.682;2022-07-06T12:20:49;4.35;;;1.40;;
70929;SDS011;58588;48.102;19.682;2022-07-06T12:23:55;7.00;;;1.63;;
70929;SDS011;58588;48.102;19.682;2022-07-06T12:26:57;3.93;;;1.40;;
70929;SDS011;58588;48.102;19.682;2022-07-06T12:30:10;4.75;;;1.50;;
70929;SDS011;58588;48.102;19.682;2022-07-06T12:33:15;6.07;;;1.80;;
70929;SDS011;58588;48.102;19.682;2022-07-06T12:36:18;4.45;;;1.70;;
70929;SDS011;58588;48.102;19.682;2022-07-06T12:39:20;5.20;;;1.70;;
70929;SDS011;58588;48.102;19.682;2022-07-06T12:42:23;4.93;;;1.40;;
70929;SDS011;58588;48.102;19.682;2022-07-06T12:45:26;6.05;;;1.80;;
70929;SDS011;58588;48.102;19.682;2022-07-06T12:48:29;5.47;;;1.50;;
70929;SDS011;58588;48.102;19.682;2022-07-06T12:54:59;5.72;;;1.60;;
70929;SDS011;58588;48.102;19.682;2022-07-06T12:58:02;4.50;;;1.60;;
70929;SDS011;58588;48.102;19.682;2022-07-06T13:01:04;6.47;;;1.80;;
70929;SDS011;58588;48.102;19.682;2022-07-06T13:04:07;8.50;;;1.90;;
70929;SDS011;58588;48.102;19.682;2022-07-06T13:07:17;5.85;;;1.90;;
70929;SDS011;58588;48.102;19.682;2022-07-06T13:10:19;6.30;;;1.67;;
70929;SDS011;58588;48.102;19.682;2022-07-06T13:13:22;4.63;;;1.90;;
70929;SDS011;58588;48.102;19.682;2022-07-06T13:16:24;6.30;;;2.42;;
70929;SDS011;58588;48.102;19.682;2022-07-06T13:19:33;6.95;;;2.05;;
70929;SDS011;58588;48.102;19.682;2022-07-06T13:22:35;5.85;;;1.90;;
70929;SDS011;58588;48.102;19.682;2022-07-06T13:25:38;5.18;;;2.40;;
70929;SDS011;58588;48.102;19.682;2022-07-06T13:28:40;6.20;;;2.20;;
70929;SDS011;58588;48.102;19.682;2022-07-06T13:31:42;5.03;;;2.10;;
70929;SDS011;58588;48.102;19.682;2022-07-06T13:34:45;5.38;;;2.45;;
70929;SDS011;58588;48.102;19.682;2022-07-06T13:37:47;5.25;;;2.50;;
70929;SDS011;58588;48.102;19.682;2022-07-06T13:40:50;6.53;;;2.90;;
70929;SDS011;58588;48.102;19.682;2022-07-06T13:43:52;8.00;;;2.70;;
70929;SDS011;58588;48.102;19.682;2022-07-06T13:46:54;9.23;;;3.38;;
70929;SDS011;58588;48.102;19.682;2022-07-06T13:49:58;7.97;;;3.20;;
70929;SDS011;58588;48.102;19.682;2022-07-06T13:52:59;5.97;;;3.08;;
70929;SDS011;58588;48.102;19.682;2022-07-06T13:56:01;5.50;;;2.78;;
70929;SDS011;58588;48.102;19.682;2022-07-06T13:59:04;6.63;;;3.70;;
70929;SDS011;58588;48.102;19.682;2022-07-06T14:02:06;7.75;;;3.92;;
70929;SDS011;58588;48.102;19.682;2022-07-06T14:05:10;8.05;;;3.92;;
70929;SDS011;58588;48.102;19.682;2022-07-06T14:08:12;7.00;;;3.50;;
70929;SDS011;58588;48.102;19.682;2022-07-06T14:11:14;6.32;;;3.40;;
70929;SDS011;58588;48.102;19.682;2022-07-06T14:14:16;6.63;;;3.40;;
70929;SDS011;58588;48.102;19.682;2022-07-06T14:17:18;8.27;;;4.22;;
70929;SDS011;58588;48.102;19.682;2022-07-06T14:20:21;8.35;;;4.28;;
70929;SDS011;58588;48.102;19.682;2022-07-06T14:23:23;7.82;;;4.40;;
70929;SDS011;58588;48.102;19.682;2022-07-06T14:26:25;7.97;;;4.43;;
70929;SDS011;58588;48.102;19.682;2022-07-06T14:29:27;7.87;;;4.30;;
70929;SDS011;58588;48.102;19.682;2022-07-06T14:32:29;7.13;;;3.80;;
70929;SDS011;58588;48.102;19.682;2022-07-06T14:35:33;7.72;;;3.90;;
70929;SDS011;58588;48.102;19.682;2022-07-06T14:38:35;7.82;;;4.10;;
70929;SDS011;58588;48.102;19.682;2022-07-06T14:41:37;8.60;;;4.20;;
70929;SDS011;58588;48.102;19.682;2022-07-06T14:44:39;7.40;;;4.20;;
70929;SDS011;58588;48.102;19.682;2022-07-06T14:47:41;8.63;;;4.40;;
70929;SDS011;58588;48.102;19.682;2022-07-06T14:50:46;8.40;;;3.80;;
70929;SDS011;58588;48.102;19.682;2022-07-06T14:53:48;6.57;;;3.80;;
70929;SDS011;58588;48.102;19.682;2022-07-06T14:56:50;8.30;;;4.35;;
70929;SDS011;58588;48.102;19.682;2022-07-06T14:59:52;8.03;;;4.03;;
70929;SDS011;58588;48.102;19.682;2022-07-06T15:02:54;7.78;;;4.20;;
70929;SDS011;58588;48.102;19.682;2022-07-06T15:05:57;9.70;;;4.22;;
70929;SDS011;58588;48.102;19.682;2022-07-06T15:08:59;8.48;;;4.50;;
70929;SDS011;58588;48.102;19.682;2022-07-06T15:12:04;8.65;;;4.10;;
70929;SDS011;58588;48.102;19.682;2022-07-06T15:15:07;11.13;;;3.50;;
70929;SDS011;58588;48.102;19.682;2022-07-06T15:18:09;7.70;;;3.78;;
70929;SDS011;58588;48.102;19.682;2022-07-06T15:21:13;10.45;;;3.80;;
70929;SDS011;58588;48.102;19.682;2022-07-06T15:24:15;6.28;;;3.60;;
70929;SDS011;58588;48.102;19.682;2022-07-06T15:27:17;6.47;;;3.95;;
70929;SDS011;58588;48.102;19.682;2022-07-06T15:30:19;6.53;;;3.50;;
70929;SDS011;58588;48.102;19.682;2022-07-06T15:33:21;7.75;;;3.75;;
70929;SDS011;58588;48.102;19.682;2022-07-06T15:36:24;8.65;;;3.33;;
70929;SDS011;58588;48.102;19.682;2022-07-06T15:39:26;6.57;;;3.40;;
70929;SDS011;58588;48.102;19.682;2022-07-06T15:42:28;7.35;;;3.10;;
70929;SDS011;58588;48.102;19.682;2022-07-06T15:45:30;7.73;;;3.17;;
70929;SDS011;58588;48.102;19.682;2022-07-06T15:48:32;6.88;;;3.10;;
70929;SDS011;58588;48.102;19.682;2022-07-06T15:51:36;5.80;;;2.78;;
70929;SDS011;58588;48.102;19.682;2022-07-06T15:54:38;6.20;;;2.53;;
70929;SDS011;58588;48.102;19.682;2022-07-06T15:57:40;5.20;;;2.40;;
70929;SDS011;58588;48.102;19.682;2022-07-06T16:00:42;6.40;;;2.27;;
70929;SDS011;58588;48.102;19.682;2022-07-06T16:03:44;6.35;;;2.15;;
70929;SDS011;58588;48.102;19.682;2022-07-06T16:06:47;5.43;;;1.95;;
70929;SDS011;58588;48.102;19.682;2022-07-06T16:09:49;6.10;;;1.85;;
70929;SDS011;58588;48.102;19.682;2022-07-06T16:12:51;5.97;;;1.90;;
70929;SDS011;58588;48.102;19.682;2022-07-06T16:15:53;6.57;;;1.93;;
70929;SDS011;58588;48.102;19.682;2022-07-06T16:18:55;4.63;;;1.95;;
70929;SDS011;58588;48.102;19.682;2022-07-06T16:21:58;5.53;;;2.00;;
70929;SDS011;58588;48.102;19.682;2022-07-06T16:25:00;6.03;;;2.22;;
70929;SDS011;58588;48.102;19.682;2022-07-06T16:28:02;4.50;;;1.83;;
70929;SDS011;58588;48.102;19.682;2022-07-06T16:31:05;4.60;;;1.80;;
70929;SDS011;58588;48.102;19.682;2022-07-06T16:34:07;5.70;;;1.77;;
70929;SDS011;58588;48.102;19.682;2022-07-06T16:37:10;4.68;;;1.90;;
70929;SDS011;58588;48.102;19.682;2022-07-06T16:40:12;5.65;;;1.85;;
70929;SDS011;58588;48.102;19.682;2022-07-06T16:43:14;13.57;;;2.05;;
70929;SDS011;58588;48.102;19.682;2022-07-06T16:46:16;5.43;;;1.63;;
70929;SDS011;58588;48.102;19.682;2022-07-06T16:49:18;9.45;;;1.80;;
70929;SDS011;58588;48.102;19.682;2022-07-06T16:52:22;5.10;;;1.42;;
70929;SDS011;58588;48.102;19.682;2022-07-06T16:55:24;3.90;;;1.40;;
70929;SDS011;58588;48.102;19.682;2022-07-06T16:58:28;5.53;;;1.30;;
70929;SDS011;58588;48.102;19.682;2022-07-06T17:01:30;4.70;;;1.47;;
70929;SDS011;58588;48.102;19.682;2022-07-06T17:04:32;4.43;;;1.30;;
70929;SDS011;58588;48.102;19.682;2022-07-06T17:07:35;4.03;;;1.38;;
70929;SDS011;58588;48.102;19.682;2022-07-06T17:10:38;6.15;;;1.50;;
70929;SDS011;58588;48.102;19.682;2022-07-06T17:13:39;6.35;;;1.40;;
70929;SDS011;58588;48.102;19.682;2022-07-06T17:16:41;4.93;;;1.50;;
70929;SDS011;58588;48.102;19.682;2022-07-06T17:19:43;6.32;;;1.50;;
70929;SDS011;58588;48.102;19.682;2022-07-06T17:22:47;6.10;;;1.42;;
70929;SDS011;58588;48.102;19.682;2022-07-06T17:25:49;5.18;;;1.55;;
70929;SDS011;58588;48.102;19.682;2022-07-06T17:28:56;5.05;;;1.63;;
70929;SDS011;58588;48.102;19.682;2022-07-06T17:31:58;5.50;;;1.50;;
70929;SDS011;58588;48.102;19.682;2022-07-06T17:35:00;4.40;;;1.70;;
70929;SDS011;58588;48.102;19.682;2022-07-06T17:38:04;6.03;;;1.60;;
70929;SDS011;58588;48.102;19.682;2022-07-06T17:41:05;4.82;;;1.30;;
70929;SDS011;58588;48.102;19.682;2022-07-06T17:44:08;4.38;;;1.58;;
70929;SDS011;58588;48.102;19.682;2022-07-06T17:47:10;5.70;;;1.60;;
70929;SDS011;58588;48.102;19.682;2022-07-06T17:50:12;8.98;;;1.60;;
70929;SDS011;58588;48.102;19.682;2022-07-06T17:53:15;4.70;;;1.67;;
70929;SDS011;58588;48.102;19.682;2022-07-06T17:56:17;5.43;;;1.73;;
70929;SDS011;58588;48.102;19.682;2022-07-06T17:59:19;5.03;;;1.83;;
70929;SDS011;58588;48.102;19.682;2022-07-06T18:02:21;5.27;;;1.80;;
70929;SDS011;58588;48.102;19.682;2022-07-06T18:05:23;4.50;;;1.63;;
70929;SDS011;58588;48.102;19.682;2022-07-06T18:08:29;7.10;;;1.70;;